sensor_id;sensor_type;location;lat;lon;timestamp;temperature;humidity
24011;DHT22;12217;50.792;4.372;2023-04-24T00:00:46;9.80;99.90
24011;DHT22;12217;50.792;4.372;2023-04-24T00:03:12;9.70;99.90
24011;DHT22;12217;50.792;4.372;2023-04-24T00:05:38;9.60;99.90
24011;DHT22;12217;50.792;4.372;2023-04-24T00:08:05;9.70;99.90
24011;DHT22;12217;50.792;4.372;2023-04-24T00:10:31;9.70;99.90
24011;DHT22;12217;50.792;4.372;2023-04-24T00:12:57;9.60;99.90
24011;DHT22;12217;50.792;4.372;2023-04-24T00:15:23;9.50;99.90
24011;DHT22;12217;50.792;4.372;2023-04-24T00:17:48;9.60;99.90
24011;DHT22;12217;50.792;4.372;2023-04-24T00:20:14;9.70;99.90
24011;DHT22;12217;50.792;4.372;2023-04-24T00:22:40;9.70;99.90
24011;DHT22;12217;50.792;4.372;2023-04-24T00:25:06;9.70;99.90
24011;DHT22;12217;50.792;4.372;2023-04-24T00:27:32;9.80;99.90
24011;DHT22;12217;50.792;4.372;2023-04-24T00:29:58;9.90;99.90
24011;DHT22;12217;50.792;4.372;2023-04-24T00:32:23;9.70;99.90
24011;DHT22;12217;50.792;4.372;2023-04-24T00:34:49;9.60;99.90
24011;DHT22;12217;50.792;4.372;2023-04-24T00:37:15;9.60;99.90
24011;DHT22;12217;50.792;4.372;2023-04-24T00:39:42;9.70;99.90
24011;DHT22;12217;50.792;4.372;2023-04-24T00:42:07;9.70;99.90
24011;DHT22;12217;50.792;4.372;2023-04-24T00:44:33;9.80;99.90
24011;DHT22;12217;50.792;4.372;2023-04-24T00:47:00;9.90;99.90
24011;DHT22;12217;50.792;4.372;2023-04-24T00:49:26;9.70;99.90
24011;DHT22;12217;50.792;4.372;2023-04-24T00:51:52;9.80;99.90
24011;DHT22;12217;50.792;4.372;2023-04-24T00:54:19;9.70;99.90
24011;DHT22;12217;50.792;4.372;2023-04-24T00:56:45;9.60;99.90
24011;DHT22;12217;50.792;4.372;2023-04-24T00:59:16;9.50;99.90
24011;DHT22;12217;50.792;4.372;2023-04-24T01:01:43;9.40;99.90
24011;DHT22;12217;50.792;4.372;2023-04-24T01:04:11;9.40;99.90
24011;DHT22;12217;50.792;4.372;2023-04-24T01:06:39;9.40;99.90
24011;DHT22;12217;50.792;4.372;2023-04-24T01:09:05;9.40;99.90
24011;DHT22;12217;50.792;4.372;2023-04-24T01:11:33;9.40;99.90
24011;DHT22;12217;50.792;4.372;2023-04-24T01:13:59;9.50;99.90
24011;DHT22;12217;50.792;4.372;2023-04-24T01:16:25;9.50;99.90
24011;DHT22;12217;50.792;4.372;2023-04-24T01:18:51;9.60;99.90
24011;DHT22;12217;50.792;4.372;2023-04-24T01:21:18;9.50;99.90
24011;DHT22;12217;50.792;4.372;2023-04-24T01:23:45;9.40;99.90
24011;DHT22;12217;50.792;4.372;2023-04-24T01:26:13;9.40;99.90
24011;DHT22;12217;50.792;4.372;2023-04-24T01:28:39;9.20;99.90
24011;DHT22;12217;50.792;4.372;2023-04-24T01:31:05;9.30;99.90
24011;DHT22;12217;50.792;4.372;2023-04-24T01:33:31;9.40;99.90
24011;DHT22;12217;50.792;4.372;2023-04-24T01:35:57;9.40;99.90
24011;DHT22;12217;50.792;4.372;2023-04-24T01:38:23;9.30;99.90
24011;DHT22;12217;50.792;4.372;2023-04-24T01:40:49;9.30;99.90
24011;DHT22;12217;50.792;4.372;2023-04-24T01:43:15;9.20;99.90
24011;DHT22;12217;50.792;4.372;2023-04-24T01:45:41;9.30;99.90
24011;DHT22;12217;50.792;4.372;2023-04-24T01:48:07;9.10;99.90
24011;DHT22;12217;50.792;4.372;2023-04-24T01:50:32;9.10;99.90
24011;DHT22;12217;50.792;4.372;2023-04-24T01:52:58;9.10;99.90
24011;DHT22;12217;50.792;4.372;2023-04-24T01:55:24;9.10;99.90
24011;DHT22;12217;50.792;4.372;2023-04-24T01:57:52;9.00;99.90
24011;DHT22;12217;50.792;4.372;2023-04-24T02:00:19;9.00;99.90
24011;DHT22;12217;50.792;4.372;2023-04-24T02:02:44;8.90;99.90
24011;DHT22;12217;50.792;4.372;2023-04-24T02:05:10;8.90;99.90
24011;DHT22;12217;50.792;4.372;2023-04-24T02:07:36;9.00;99.90
24011;DHT22;12217;50.792;4.372;2023-04-24T02:10:03;9.00;99.90
24011;DHT22;12217;50.792;4.372;2023-04-24T02:12:29;8.90;99.90
24011;DHT22;12217;50.792;4.372;2023-04-24T02:14:55;8.90;99.90
24011;DHT22;12217;50.792;4.372;2023-04-24T02:17:20;8.90;99.90
24011;DHT22;12217;50.792;4.372;2023-04-24T02:19:46;8.90;99.90
24011;DHT22;12217;50.792;4.372;2023-04-24T02:22:12;9.00;99.90
24011;DHT22;12217;50.792;4.372;2023-04-24T02:24:38;9.10;99.90
24011;DHT22;12217;50.792;4.372;2023-04-24T02:27:04;9.10;99.90
24011;DHT22;12217;50.792;4.372;2023-04-24T02:29:30;9.00;99.90
24011;DHT22;12217;50.792;4.372;2023-04-24T02:31:56;9.00;99.90
24011;DHT22;12217;50.792;4.372;2023-04-24T02:34:22;8.90;99.90
24011;DHT22;12217;50.792;4.372;2023-04-24T02:36:48;8.90;99.90
24011;DHT22;12217;50.792;4.372;2023-04-24T02:39:14;8.90;99.90
24011;DHT22;12217;50.792;4.372;2023-04-24T02:41:42;9.00;99.90
24011;DHT22;12217;50.792;4.372;2023-04-24T02:44:08;8.80;99.90
24011;DHT22;12217;50.792;4.372;2023-04-24T02:46:33;8.90;99.90
24011;DHT22;12217;50.792;4.372;2023-04-24T02:48:59;8.90;99.90
24011;DHT22;12217;50.792;4.372;2023-04-24T02:51:24;8.90;99.90
24011;DHT22;12217;50.792;4.372;2023-04-24T02:53:50;8.90;99.90
24011;DHT22;12217;50.792;4.372;2023-04-24T02:56:16;8.90;99.90
24011;DHT22;12217;50.792;4.372;2023-04-24T02:58:41;8.90;99.90
24011;DHT22;12217;50.792;4.372;2023-04-24T03:01:08;9.00;99.90
24011;DHT22;12217;50.792;4.372;2023-04-24T03:03:35;8.90;99.90
24011;DHT22;12217;50.792;4.372;2023-04-24T03:06:01;8.80;99.90
24011;DHT22;12217;50.792;4.372;2023-04-24T03:08:27;8.80;99.90
24011;DHT22;12217;50.792;4.372;2023-04-24T03:10:52;8.70;99.90
24011;DHT22;12217;50.792;4.372;2023-04-24T03:13:18;8.60;99.90
24011;DHT22;12217;50.792;4.372;2023-04-24T03:15:44;8.80;99.90
24011;DHT22;12217;50.792;4.372;2023-04-24T03:18:10;8.80;99.90
24011;DHT22;12217;50.792;4.372;2023-04-24T03:20:36;8.80;99.90
24011;DHT22;12217;50.792;4.372;2023-04-24T03:23:03;8.80;99.90
24011;DHT22;12217;50.792;4.372;2023-04-24T03:25:28;8.80;99.90
24011;DHT22;12217;50.792;4.372;2023-04-24T03:27:54;8.70;99.90
24011;DHT22;12217;50.792;4.372;2023-04-24T03:30:20;8.70;99.90
24011;DHT22;12217;50.792;4.372;2023-04-24T03:32:46;8.60;99.90
24011;DHT22;12217;50.792;4.372;2023-04-24T03:35:11;8.60;99.90
24011;DHT22;12217;50.792;4.372;2023-04-24T03:37:37;8.50;99.90
24011;DHT22;12217;50.792;4.372;2023-04-24T03:40:03;8.50;99.90
24011;DHT22;12217;50.792;4.372;2023-04-24T03:42:29;8.70;99.90
24011;DHT22;12217;50.792;4.372;2023-04-24T03:44:54;8.80;99.90
24011;DHT22;12217;50.792;4.372;2023-04-24T03:47:20;8.90;99.90
24011;DHT22;12217;50.792;4.372;2023-04-24T03:49:46;8.90;99.90
24011;DHT22;12217;50.792;4.372;2023-04-24T03:52:11;8.80;99.90
24011;DHT22;12217;50.792;4.372;2023-04-24T03:54:37;8.90;99.90
24011;DHT22;12217;50.792;4.372;2023-04-24T03:57:02;8.80;99.90
24011;DHT22;12217;50.792;4.372;2023-04-24T03:59:30;8.70;99.90
24011;DHT22;12217;50.792;4.372;2023-04-24T04:01:55;8.80;99.90
24011;DHT22;12217;50.792;4.372;2023-04-24T04:04:21;8.80;99.90
24011;DHT22;12217;50.792;4.372;2023-04-24T04:06:47;8.90;99.90
24011;DHT22;12217;50.792;4.372;2023-04-24T04:09:13;8.90;99.90
24011;DHT22;12217;50.792;4.372;2023-04-24T04:11:38;9.00;99.90
24011;DHT22;12217;50.792;4.372;2023-04-24T04:14:04;9.10;99.90
24011;DHT22;12217;50.792;4.372;2023-04-24T04:16:30;9.10;99.90
24011;DHT22;12217;50.792;4.372;2023-04-24T04:18:56;9.10;99.90
24011;DHT22;12217;50.792;4.372;2023-04-24T04:21:22;9.20;99.90
24011;DHT22;12217;50.792;4.372;2023-04-24T04:23:47;9.20;99.90
24011;DHT22;12217;50.792;4.372;2023-04-24T04:26:14;9.30;99.90
24011;DHT22;12217;50.792;4.372;2023-04-24T04:28:39;9.30;99.90
24011;DHT22;12217;50.792;4.372;2023-04-24T04:31:06;9.40;99.90
24011;DHT22;12217;50.792;4.372;2023-04-24T04:33:33;9.30;99.90
24011;DHT22;12217;50.792;4.372;2023-04-24T04:35:59;9.40;99.90
24011;DHT22;12217;50.792;4.372;2023-04-24T04:38:25;9.40;99.90
24011;DHT22;12217;50.792;4.372;2023-04-24T04:40:55;9.40;99.90
24011;DHT22;12217;50.792;4.372;2023-04-24T04:43:24;9.60;99.90
24011;DHT22;12217;50.792;4.372;2023-04-24T04:45:50;9.60;99.90
24011;DHT22;12217;50.792;4.372;2023-04-24T04:48:17;9.50;99.90
24011;DHT22;12217;50.792;4.372;2023-04-24T04:50:43;9.40;99.90
24011;DHT22;12217;50.792;4.372;2023-04-24T04:53:08;9.40;99.90
24011;DHT22;12217;50.792;4.372;2023-04-24T04:55:34;9.50;99.90
24011;DHT22;12217;50.792;4.372;2023-04-24T04:58:00;9.60;99.90
24011;DHT22;12217;50.792;4.372;2023-04-24T05:00:26;9.50;99.90
24011;DHT22;12217;50.792;4.372;2023-04-24T05:02:52;9.40;99.90
24011;DHT22;12217;50.792;4.372;2023-04-24T05:05:18;9.50;99.90
24011;DHT22;12217;50.792;4.372;2023-04-24T05:07:44;9.40;99.90
24011;DHT22;12217;50.792;4.372;2023-04-24T05:10:11;9.40;99.90
24011;DHT22;12217;50.792;4.372;2023-04-24T05:12:37;9.30;99.90
24011;DHT22;12217;50.792;4.372;2023-04-24T05:15:03;9.30;99.90
24011;DHT22;12217;50.792;4.372;2023-04-24T05:17:29;9.30;99.90
24011;DHT22;12217;50.792;4.372;2023-04-24T05:19:54;9.30;99.90
24011;DHT22;12217;50.792;4.372;2023-04-24T05:22:20;9.20;99.90
24011;DHT22;12217;50.792;4.372;2023-04-24T05:24:47;9.30;99.90
24011;DHT22;12217;50.792;4.372;2023-04-24T05:27:12;9.30;99.90
24011;DHT22;12217;50.792;4.372;2023-04-24T05:29:38;9.30;99.90
24011;DHT22;12217;50.792;4.372;2023-04-24T05:32:04;9.30;99.90
24011;DHT22;12217;50.792;4.372;2023-04-24T05:34:30;9.40;99.90
24011;DHT22;12217;50.792;4.372;2023-04-24T05:36:55;9.40;99.90
24011;DHT22;12217;50.792;4.372;2023-04-24T05:39:21;9.60;99.90
24011;DHT22;12217;50.792;4.372;2023-04-24T05:41:47;9.70;99.90
24011;DHT22;12217;50.792;4.372;2023-04-24T05:44:12;9.80;99.90
24011;DHT22;12217;50.792;4.372;2023-04-24T05:46:38;9.80;99.90
24011;DHT22;12217;50.792;4.372;2023-04-24T05:49:04;9.80;99.90
24011;DHT22;12217;50.792;4.372;2023-04-24T05:51:29;9.60;99.90
24011;DHT22;12217;50.792;4.372;2023-04-24T05:53:57;9.70;99.90
24011;DHT22;12217;50.792;4.372;2023-04-24T05:56:23;9.70;99.90
24011;DHT22;12217;50.792;4.372;2023-04-24T05:58:49;9.80;99.90
24011;DHT22;12217;50.792;4.372;2023-04-24T06:01:14;9.60;99.90
24011;DHT22;12217;50.792;4.372;2023-04-24T06:03:41;9.60;99.90
24011;DHT22;12217;50.792;4.372;2023-04-24T06:06:07;9.60;99.90
24011;DHT22;12217;50.792;4.372;2023-04-24T06:08:33;9.40;99.90
24011;DHT22;12217;50.792;4.372;2023-04-24T06:10:59;9.60;99.90
24011;DHT22;12217;50.792;4.372;2023-04-24T06:13:25;9.50;99.90
24011;DHT22;12217;50.792;4.372;2023-04-24T06:15:51;9.40;99.90
24011;DHT22;12217;50.792;4.372;2023-04-24T06:18:17;9.40;99.90
24011;DHT22;12217;50.792;4.372;2023-04-24T06:20:43;9.30;99.90
24011;DHT22;12217;50.792;4.372;2023-04-24T06:23:08;9.20;99.90
24011;DHT22;12217;50.792;4.372;2023-04-24T06:25:34;9.20;99.90
24011;DHT22;12217;50.792;4.372;2023-04-24T06:27:59;9.00;99.90
24011;DHT22;12217;50.792;4.372;2023-04-24T06:30:25;9.10;99.90
24011;DHT22;12217;50.792;4.372;2023-04-24T06:32:52;9.20;99.90
24011;DHT22;12217;50.792;4.372;2023-04-24T06:35:18;9.20;99.90
24011;DHT22;12217;50.792;4.372;2023-04-24T06:37:44;9.20;99.90
24011;DHT22;12217;50.792;4.372;2023-04-24T06:40:10;9.20;99.90
24011;DHT22;12217;50.792;4.372;2023-04-24T06:42:36;9.30;99.90
24011;DHT22;12217;50.792;4.372;2023-04-24T06:45:02;9.20;99.90
24011;DHT22;12217;50.792;4.372;2023-04-24T06:47:28;9.10;99.90
24011;DHT22;12217;50.792;4.372;2023-04-24T06:49:54;9.10;99.90
24011;DHT22;12217;50.792;4.372;2023-04-24T06:52:20;9.10;99.90
24011;DHT22;12217;50.792;4.372;2023-04-24T06:54:46;9.20;99.90
24011;DHT22;12217;50.792;4.372;2023-04-24T06:57:11;9.20;99.90
24011;DHT22;12217;50.792;4.372;2023-04-24T06:59:38;9.20;99.90
24011;DHT22;12217;50.792;4.372;2023-04-24T07:02:03;9.30;99.90
24011;DHT22;12217;50.792;4.372;2023-04-24T07:04:30;9.30;99.90
24011;DHT22;12217;50.792;4.372;2023-04-24T07:06:56;9.20;99.90
24011;DHT22;12217;50.792;4.372;2023-04-24T07:09:24;9.30;99.90
24011;DHT22;12217;50.792;4.372;2023-04-24T07:11:53;9.50;99.90
24011;DHT22;12217;50.792;4.372;2023-04-24T07:14:20;9.50;99.90
24011;DHT22;12217;50.792;4.372;2023-04-24T07:16:46;9.50;99.90
24011;DHT22;12217;50.792;4.372;2023-04-24T07:19:13;9.40;99.90
24011;DHT22;12217;50.792;4.372;2023-04-24T07:21:39;9.60;99.90
24011;DHT22;12217;50.792;4.372;2023-04-24T07:24:05;9.60;99.90
24011;DHT22;12217;50.792;4.372;2023-04-24T07:26:30;9.80;99.90
24011;DHT22;12217;50.792;4.372;2023-04-24T07:28:57;9.80;99.90
24011;DHT22;12217;50.792;4.372;2023-04-24T07:31:22;9.70;99.90
24011;DHT22;12217;50.792;4.372;2023-04-24T07:33:48;9.90;99.90
24011;DHT22;12217;50.792;4.372;2023-04-24T07:36:14;10.00;99.90
24011;DHT22;12217;50.792;4.372;2023-04-24T07:38:47;10.00;99.90
24011;DHT22;12217;50.792;4.372;2023-04-24T07:41:13;10.00;99.90
24011;DHT22;12217;50.792;4.372;2023-04-24T07:43:39;10.10;99.90
24011;DHT22;12217;50.792;4.372;2023-04-24T07:46:06;10.00;99.90
24011;DHT22;12217;50.792;4.372;2023-04-24T07:48:32;10.10;99.90
24011;DHT22;12217;50.792;4.372;2023-04-24T07:50:57;10.00;99.90
24011;DHT22;12217;50.792;4.372;2023-04-24T07:53:23;10.00;99.90
24011;DHT22;12217;50.792;4.372;2023-04-24T07:55:49;10.10;99.90
24011;DHT22;12217;50.792;4.372;2023-04-24T07:58:15;10.20;99.90
24011;DHT22;12217;50.792;4.372;2023-04-24T08:00:40;10.10;99.90
24011;DHT22;12217;50.792;4.372;2023-04-24T08:03:06;10.10;99.90
24011;DHT22;12217;50.792;4.372;2023-04-24T08:05:32;9.90;99.90
24011;DHT22;12217;50.792;4.372;2023-04-24T08:07:58;10.00;99.90
24011;DHT22;12217;50.792;4.372;2023-04-24T08:10:25;10.10;99.90
24011;DHT22;12217;50.792;4.372;2023-04-24T08:12:51;10.10;99.90
24011;DHT22;12217;50.792;4.372;2023-04-24T08:15:17;10.10;99.90
24011;DHT22;12217;50.792;4.372;2023-04-24T08:17:43;10.00;99.90
24011;DHT22;12217;50.792;4.372;2023-04-24T08:20:10;10.00;99.90
24011;DHT22;12217;50.792;4.372;2023-04-24T08:22:39;10.10;99.90
24011;DHT22;12217;50.792;4.372;2023-04-24T08:25:06;10.20;99.90
24011;DHT22;12217;50.792;4.372;2023-04-24T08:27:32;10.30;99.90
24011;DHT22;12217;50.792;4.372;2023-04-24T08:29:58;10.40;99.90
24011;DHT22;12217;50.792;4.372;2023-04-24T08:32:47;10.40;99.90
24011;DHT22;12217;50.792;4.372;2023-04-24T08:35:14;10.40;99.90
24011;DHT22;12217;50.792;4.372;2023-04-24T08:37:51;10.40;99.90
24011;DHT22;12217;50.792;4.372;2023-04-24T08:40:17;10.70;99.90
24011;DHT22;12217;50.792;4.372;2023-04-24T08:42:46;10.70;99.90
24011;DHT22;12217;50.792;4.372;2023-04-24T08:45:12;10.70;99.90
24011;DHT22;12217;50.792;4.372;2023-04-24T08:47:39;10.70;99.90
24011;DHT22;12217;50.792;4.372;2023-04-24T08:50:07;10.90;99.90
24011;DHT22;12217;50.792;4.372;2023-04-24T08:52:34;10.90;99.90
24011;DHT22;12217;50.792;4.372;2023-04-24T08:55:03;11.00;99.90
24011;DHT22;12217;50.792;4.372;2023-04-24T08:57:29;11.30;99.90
24011;DHT22;12217;50.792;4.372;2023-04-24T08:59:56;11.50;99.90
24011;DHT22;12217;50.792;4.372;2023-04-24T09:02:23;11.70;99.90
24011;DHT22;12217;50.792;4.372;2023-04-24T09:04:49;11.70;99.90
24011;DHT22;12217;50.792;4.372;2023-04-24T09:07:16;11.80;99.90
24011;DHT22;12217;50.792;4.372;2023-04-24T09:09:43;11.80;99.90
24011;DHT22;12217;50.792;4.372;2023-04-24T09:12:09;11.80;99.90
24011;DHT22;12217;50.792;4.372;2023-04-24T09:14:36;11.90;99.90
24011;DHT22;12217;50.792;4.372;2023-04-24T09:17:06;11.90;99.90
24011;DHT22;12217;50.792;4.372;2023-04-24T09:19:31;12.10;99.90
24011;DHT22;12217;50.792;4.372;2023-04-24T09:21:57;12.20;99.90
24011;DHT22;12217;50.792;4.372;2023-04-24T09:24:22;12.10;99.90
24011;DHT22;12217;50.792;4.372;2023-04-24T09:26:49;11.70;99.90
24011;DHT22;12217;50.792;4.372;2023-04-24T09:29:22;11.60;99.90
24011;DHT22;12217;50.792;4.372;2023-04-24T09:31:48;11.60;99.90
24011;DHT22;12217;50.792;4.372;2023-04-24T09:34:13;11.60;99.90
24011;DHT22;12217;50.792;4.372;2023-04-24T09:36:41;11.40;99.90
24011;DHT22;12217;50.792;4.372;2023-04-24T09:39:09;11.40;99.90
24011;DHT22;12217;50.792;4.372;2023-04-24T09:41:59;11.70;99.90
24011;DHT22;12217;50.792;4.372;2023-04-24T09:44:27;11.80;99.90
24011;DHT22;12217;50.792;4.372;2023-04-24T09:46:55;11.90;99.90
24011;DHT22;12217;50.792;4.372;2023-04-24T09:49:23;12.00;99.90
24011;DHT22;12217;50.792;4.372;2023-04-24T09:51:50;12.30;99.90
24011;DHT22;12217;50.792;4.372;2023-04-24T09:54:17;12.20;99.90
24011;DHT22;12217;50.792;4.372;2023-04-24T09:56:44;12.20;99.90
24011;DHT22;12217;50.792;4.372;2023-04-24T09:59:12;12.10;99.90
24011;DHT22;12217;50.792;4.372;2023-04-24T10:01:37;11.70;99.90
24011;DHT22;12217;50.792;4.372;2023-04-24T10:04:04;11.50;99.90
24011;DHT22;12217;50.792;4.372;2023-04-24T10:06:33;11.50;99.90
24011;DHT22;12217;50.792;4.372;2023-04-24T10:08:59;11.60;99.90
24011;DHT22;12217;50.792;4.372;2023-04-24T10:11:27;11.70;99.90
24011;DHT22;12217;50.792;4.372;2023-04-24T10:13:53;11.70;99.90
24011;DHT22;12217;50.792;4.372;2023-04-24T10:16:21;11.70;99.90
24011;DHT22;12217;50.792;4.372;2023-04-24T10:18:48;11.60;99.90
24011;DHT22;12217;50.792;4.372;2023-04-24T10:21:17;11.70;99.90
24011;DHT22;12217;50.792;4.372;2023-04-24T10:23:43;11.80;99.90
24011;DHT22;12217;50.792;4.372;2023-04-24T10:26:16;12.00;99.90
24011;DHT22;12217;50.792;4.372;2023-04-24T10:28:45;12.10;99.90
24011;DHT22;12217;50.792;4.372;2023-04-24T10:31:12;12.20;99.90
24011;DHT22;12217;50.792;4.372;2023-04-24T10:33:40;12.20;99.90
24011;DHT22;12217;50.792;4.372;2023-04-24T10:36:08;12.10;99.90
24011;DHT22;12217;50.792;4.372;2023-04-24T10:38:35;12.10;99.90
24011;DHT22;12217;50.792;4.372;2023-04-24T10:43:35;12.20;99.90
24011;DHT22;12217;50.792;4.372;2023-04-24T10:46:05;11.90;99.90
24011;DHT22;12217;50.792;4.372;2023-04-24T10:48:31;11.90;99.90
24011;DHT22;12217;50.792;4.372;2023-04-24T10:50:58;12.00;99.90
24011;DHT22;12217;50.792;4.372;2023-04-24T10:53:27;12.00;99.90
24011;DHT22;12217;50.792;4.372;2023-04-24T10:56:03;12.20;99.90
24011;DHT22;12217;50.792;4.372;2023-04-24T10:58:43;11.90;99.90
24011;DHT22;12217;50.792;4.372;2023-04-24T11:01:25;12.30;99.90
24011;DHT22;12217;50.792;4.372;2023-04-24T11:04:01;12.40;99.90
24011;DHT22;12217;50.792;4.372;2023-04-24T11:06:36;12.50;99.90
24011;DHT22;12217;50.792;4.372;2023-04-24T11:09:10;12.40;99.90
24011;DHT22;12217;50.792;4.372;2023-04-24T11:11:45;12.30;99.90
24011;DHT22;12217;50.792;4.372;2023-04-24T11:14:14;12.40;99.90
24011;DHT22;12217;50.792;4.372;2023-04-24T11:16:52;12.30;99.90
24011;DHT22;12217;50.792;4.372;2023-04-24T11:19:23;12.30;99.90
24011;DHT22;12217;50.792;4.372;2023-04-24T11:21:58;12.20;99.90
24011;DHT22;12217;50.792;4.372;2023-04-24T11:24:39;12.30;99.90
24011;DHT22;12217;50.792;4.372;2023-04-24T11:27:11;12.20;99.90
24011;DHT22;12217;50.792;4.372;2023-04-24T11:35:06;11.80;99.90
24011;DHT22;12217;50.792;4.372;2023-04-24T11:37:39;12.00;99.90
24011;DHT22;12217;50.792;4.372;2023-04-24T11:40:07;12.20;99.90
24011;DHT22;12217;50.792;4.372;2023-04-24T11:42:43;12.20;99.90
24011;DHT22;12217;50.792;4.372;2023-04-24T11:45:15;12.40;99.90
24011;DHT22;12217;50.792;4.372;2023-04-24T11:47:42;12.50;99.90
24011;DHT22;12217;50.792;4.372;2023-04-24T11:50:11;12.60;99.90
24011;DHT22;12217;50.792;4.372;2023-04-24T11:52:41;12.90;99.90
24011;DHT22;12217;50.792;4.372;2023-04-24T11:57:47;13.00;99.90
24011;DHT22;12217;50.792;4.372;2023-04-24T12:00:17;13.30;99.90
24011;DHT22;12217;50.792;4.372;2023-04-24T12:02:44;13.30;99.90
24011;DHT22;12217;50.792;4.372;2023-04-24T12:05:23;13.40;99.90
24011;DHT22;12217;50.792;4.372;2023-04-24T12:07:49;13.60;99.90
24011;DHT22;12217;50.792;4.372;2023-04-24T12:10:23;14.00;99.90
24011;DHT22;12217;50.792;4.372;2023-04-24T12:12:50;14.30;99.90
24011;DHT22;12217;50.792;4.372;2023-04-24T12:15:17;14.60;99.90
24011;DHT22;12217;50.792;4.372;2023-04-24T12:17:44;14.80;99.90
24011;DHT22;12217;50.792;4.372;2023-04-24T12:20:10;14.90;99.90
24011;DHT22;12217;50.792;4.372;2023-04-24T12:23:06;15.00;99.90
24011;DHT22;12217;50.792;4.372;2023-04-24T12:25:32;15.10;99.90
24011;DHT22;12217;50.792;4.372;2023-04-24T12:30:34;15.00;99.90
24011;DHT22;12217;50.792;4.372;2023-04-24T12:33:01;14.80;99.90
24011;DHT22;12217;50.792;4.372;2023-04-24T12:35:30;14.80;99.90
24011;DHT22;12217;50.792;4.372;2023-04-24T12:38:09;14.80;99.90
24011;DHT22;12217;50.792;4.372;2023-04-24T12:40:35;14.70;99.90
24011;DHT22;12217;50.792;4.372;2023-04-24T12:43:01;14.90;99.90
24011;DHT22;12217;50.792;4.372;2023-04-24T12:45:27;14.70;99.90
24011;DHT22;12217;50.792;4.372;2023-04-24T12:47:53;14.30;99.90
24011;DHT22;12217;50.792;4.372;2023-04-24T12:50:19;14.70;99.90
24011;DHT22;12217;50.792;4.372;2023-04-24T12:52:45;14.90;99.90
24011;DHT22;12217;50.792;4.372;2023-04-24T12:55:11;15.10;99.90
24011;DHT22;12217;50.792;4.372;2023-04-24T12:57:38;15.40;99.90
24011;DHT22;12217;50.792;4.372;2023-04-24T13:00:06;15.60;99.90
24011;DHT22;12217;50.792;4.372;2023-04-24T13:02:33;16.00;99.90
24011;DHT22;12217;50.792;4.372;2023-04-24T13:04:59;16.10;99.90
24011;DHT22;12217;50.792;4.372;2023-04-24T13:07:26;16.10;99.90
24011;DHT22;12217;50.792;4.372;2023-04-24T13:09:53;15.90;99.90
24011;DHT22;12217;50.792;4.372;2023-04-24T13:12:19;15.80;99.90
24011;DHT22;12217;50.792;4.372;2023-04-24T13:14:45;15.70;99.90
24011;DHT22;12217;50.792;4.372;2023-04-24T13:17:12;15.70;99.90
24011;DHT22;12217;50.792;4.372;2023-04-24T13:19:43;15.70;99.90
24011;DHT22;12217;50.792;4.372;2023-04-24T13:22:12;15.50;99.90
24011;DHT22;12217;50.792;4.372;2023-04-24T13:24:39;15.10;99.90
24011;DHT22;12217;50.792;4.372;2023-04-24T13:27:06;15.00;99.90
24011;DHT22;12217;50.792;4.372;2023-04-24T13:29:32;15.00;99.90
24011;DHT22;12217;50.792;4.372;2023-04-24T13:31:58;14.90;99.90
24011;DHT22;12217;50.792;4.372;2023-04-24T13:34:24;14.90;99.90
24011;DHT22;12217;50.792;4.372;2023-04-24T13:36:56;14.60;99.90
24011;DHT22;12217;50.792;4.372;2023-04-24T13:39:23;14.70;99.90
24011;DHT22;12217;50.792;4.372;2023-04-24T13:41:48;14.60;99.90
24011;DHT22;12217;50.792;4.372;2023-04-24T13:44:15;14.80;99.90
24011;DHT22;12217;50.792;4.372;2023-04-24T13:46:42;15.10;99.90
24011;DHT22;12217;50.792;4.372;2023-04-24T13:49:09;15.30;99.90
24011;DHT22;12217;50.792;4.372;2023-04-24T13:51:34;15.30;99.90
24011;DHT22;12217;50.792;4.372;2023-04-24T13:54:00;15.50;99.90
24011;DHT22;12217;50.792;4.372;2023-04-24T13:56:26;15.40;99.90
24011;DHT22;12217;50.792;4.372;2023-04-24T13:58:52;15.20;99.90
24011;DHT22;12217;50.792;4.372;2023-04-24T14:01:19;15.10;99.90
24011;DHT22;12217;50.792;4.372;2023-04-24T14:03:46;15.00;99.90
24011;DHT22;12217;50.792;4.372;2023-04-24T14:06:11;15.10;99.90
24011;DHT22;12217;50.792;4.372;2023-04-24T14:08:37;15.00;99.90
24011;DHT22;12217;50.792;4.372;2023-04-24T14:11:03;14.80;99.90
24011;DHT22;12217;50.792;4.372;2023-04-24T14:13:29;14.50;99.90
24011;DHT22;12217;50.792;4.372;2023-04-24T14:15:54;14.50;99.90
24011;DHT22;12217;50.792;4.372;2023-04-24T14:18:20;14.50;99.90
24011;DHT22;12217;50.792;4.372;2023-04-24T14:20:46;14.40;99.90
24011;DHT22;12217;50.792;4.372;2023-04-24T14:23:11;14.50;99.90
24011;DHT22;12217;50.792;4.372;2023-04-24T14:25:37;14.20;99.90
24011;DHT22;12217;50.792;4.372;2023-04-24T14:28:03;14.20;99.90
24011;DHT22;12217;50.792;4.372;2023-04-24T14:30:28;14.00;99.90
24011;DHT22;12217;50.792;4.372;2023-04-24T14:32:54;13.90;99.90
24011;DHT22;12217;50.792;4.372;2023-04-24T14:35:20;14.10;99.90
24011;DHT22;12217;50.792;4.372;2023-04-24T14:37:46;14.20;99.90
24011;DHT22;12217;50.792;4.372;2023-04-24T14:40:13;14.30;99.90
24011;DHT22;12217;50.792;4.372;2023-04-24T14:42:40;14.40;99.90
24011;DHT22;12217;50.792;4.372;2023-04-24T14:45:06;14.30;99.90
24011;DHT22;12217;50.792;4.372;2023-04-24T14:47:33;14.00;99.90
24011;DHT22;12217;50.792;4.372;2023-04-24T14:49:58;13.90;99.90
24011;DHT22;12217;50.792;4.372;2023-04-24T14:52:24;14.10;99.90
24011;DHT22;12217;50.792;4.372;2023-04-24T14:54:50;14.00;99.90
24011;DHT22;12217;50.792;4.372;2023-04-24T14:57:16;13.80;99.90
24011;DHT22;12217;50.792;4.372;2023-04-24T14:59:41;13.60;99.90
24011;DHT22;12217;50.792;4.372;2023-04-24T15:02:07;13.60;99.90
24011;DHT22;12217;50.792;4.372;2023-04-24T15:04:33;13.40;99.90
24011;DHT22;12217;50.792;4.372;2023-04-24T15:06:58;13.60;99.90
24011;DHT22;12217;50.792;4.372;2023-04-24T15:09:25;13.40;99.90
24011;DHT22;12217;50.792;4.372;2023-04-24T15:11:51;13.40;99.90
24011;DHT22;12217;50.792;4.372;2023-04-24T15:14:18;13.40;99.90
24011;DHT22;12217;50.792;4.372;2023-04-24T15:16:44;13.50;99.90
24011;DHT22;12217;50.792;4.372;2023-04-24T15:19:10;13.70;99.90
24011;DHT22;12217;50.792;4.372;2023-04-24T15:21:37;13.80;99.90
24011;DHT22;12217;50.792;4.372;2023-04-24T15:24:03;14.00;99.90
24011;DHT22;12217;50.792;4.372;2023-04-24T15:26:30;14.20;99.90
24011;DHT22;12217;50.792;4.372;2023-04-24T15:28:55;14.20;99.90
24011;DHT22;12217;50.792;4.372;2023-04-24T15:31:21;14.30;99.90
24011;DHT22;12217;50.792;4.372;2023-04-24T15:33:48;14.20;99.90
24011;DHT22;12217;50.792;4.372;2023-04-24T15:36:15;14.10;99.90
24011;DHT22;12217;50.792;4.372;2023-04-24T15:38:42;14.20;99.90
24011;DHT22;12217;50.792;4.372;2023-04-24T15:41:08;14.20;99.90
24011;DHT22;12217;50.792;4.372;2023-04-24T15:43:33;14.10;99.90
24011;DHT22;12217;50.792;4.372;2023-04-24T15:46:00;14.10;99.90
24011;DHT22;12217;50.792;4.372;2023-04-24T15:48:27;14.10;99.90